Huvudsida
METAR-TAF:

METAR-TAF

Flygplatser :

Belize City, Belize

Belize International Airport

latitud: 17-32N, longitud: 088-18W, höjd: 5 m

Aktuellt väderrapport

Denna rapport gjordes för 12 timmar och 15 minuter sedan, klockan 15:00 UTC
Vind 9 kt från ost/sydost i byarna ända upp till 20 kt
Temperatur 28°C
Fuktighet 74%
Tryck 1017 hPa
Sikt 10 km eller mer
Få moln på en höjd av 2200 ft

METAR: MZBZ 201500Z 12009G20KT 9999 FEW022 28/23 A3003 Q1017 NOSIG

Tid: 21:15 (03:15 UTC)

Väderprognos

Denna rapport gjordes för 18 timmar och 15 minuter sedan, klockan 09:00 UTC
Prognos gäller från 20 kl. 12 UTC till 21 kl. 12 UTC
Vind 10 kt från ost
Sikt 10 km eller mer
Spridda moln på en höjd av 2200 ft
Spridda moln på en höjd av 4500 ft
Sannolikhet 30% :
Temporärt
från 20 kl. 12 UTC till 20 kl. 20 UTC
Sikt: 5000 m
Brutna moln på en höjd av 1500 ft
Brutna moln på en höjd av 4000 ft
regnskurar

TAF: MZBZ 200900Z 2012/2112 10010KT 9999 SCT022 SCT045 PROB30 TEMPO 2012/2020 5000 SHRA BKN015 BKN040

Aktuella väderrapporter och prognoser från 4000 flygplatser (METAR- och TAF-rapporter).

De tillgängliga stationerna syns som gula och röda prickar på kartan.

För musen över prickarna för att se namnen på stationerna.

Klicka sedan för att få väderrapporter och prognoser.

För att ändra kartan: Klicka på de gröna knapparna med ett svart kors på för att zooma in; den gröna knappen med ett streck på för att zooma ut; eller på de gröna pilarna för angränsande kartor.


METAR-TAF: